createdAt,value
2018-03-30T00:02:21.574Z,75.42
2018-03-30T00:07:22.924Z,74.89
2018-03-30T00:12:24.289Z,74.57
2018-03-30T00:17:25.659Z,74.63
2018-03-30T00:22:27.760Z,74.67
2018-03-30T00:27:29.886Z,74.29
2018-03-30T00:32:31.338Z,74.40
2018-03-30T00:37:32.791Z,74.89
2018-03-30T00:42:34.159Z,74.37
2018-03-30T00:47:35.562Z,74.02
2018-03-30T00:52:36.908Z,73.95
2018-03-30T00:57:38.822Z,74.17
2018-03-30T01:02:40.956Z,74.51
2018-03-30T01:07:42.303Z,74.46
2018-03-30T01:12:43.673Z,74.66
2018-03-30T01:17:45.047Z,75.27
2018-03-30T01:22:46.410Z,75.10
2018-03-30T01:27:47.798Z,75.36
2018-03-30T01:32:49.868Z,75.49
2018-03-30T01:37:51.227Z,75.46
2018-03-30T01:42:52.569Z,75.10
2018-03-30T01:47:54.651Z,75.28
2018-03-30T01:52:55.990Z,74.69
2018-03-30T01:57:57.330Z,74.22
2018-03-30T02:02:58.682Z,74.26
2018-03-30T02:08:00.070Z,74.59
2018-03-30T02:13:01.498Z,74.68
2018-03-30T02:18:02.892Z,74.91
2018-03-30T02:23:04.245Z,74.73
2018-03-30T02:28:05.744Z,74.73
2018-03-30T02:33:07.085Z,74.59
2018-03-30T02:38:08.492Z,74.67
2018-03-30T02:43:09.897Z,74.77
2018-03-30T02:48:11.229Z,75.15
2018-03-30T02:53:12.630Z,75.35
2018-03-30T02:58:13.996Z,75.25
2018-03-30T03:03:15.368Z,75.11
2018-03-30T03:08:16.714Z,75.07
2018-03-30T03:13:18.066Z,74.99
2018-03-30T03:18:19.443Z,75.03
2018-03-30T03:23:20.810Z,74.79
2018-03-30T03:28:22.171Z,75.13
2018-03-30T03:33:23.505Z,75.22
2018-03-30T03:38:24.850Z,75.33
2018-03-30T03:43:26.409Z,75.28
2018-03-30T03:48:27.759Z,74.94
2018-03-30T03:53:29.829Z,74.53
2018-03-30T03:58:31.223Z,73.88
2018-03-30T04:03:32.596Z,73.73
2018-03-30T04:08:34.052Z,73.86
2018-03-30T04:13:35.444Z,74.10
2018-03-30T04:18:36.788Z,74.02
2018-03-30T04:23:38.166Z,73.81
2018-03-30T04:28:39.577Z,73.75
2018-03-30T04:33:41.752Z,73.76
2018-03-30T04:38:44.010Z,73.62
2018-03-30T04:43:46.548Z,73.58
2018-03-30T04:48:48.193Z,73.33
2018-03-30T04:53:50.424Z,73.61
2018-03-30T04:58:52.260Z,73.42
2018-03-30T05:03:53.833Z,72.71
2018-03-30T05:08:56.340Z,72.51
2018-03-30T05:13:57.670Z,72.41
2018-03-30T05:18:59.878Z,72.99
2018-03-30T05:24:01.313Z,73.05
2018-03-30T05:29:02.843Z,72.62
2018-03-30T05:34:04.360Z,72.79
2018-03-30T05:39:05.810Z,73.01
2018-03-30T05:44:07.218Z,72.78
2018-03-30T05:49:09.353Z,72.27
2018-03-30T05:54:10.816Z,72.16
2018-03-30T05:59:13.768Z,72.25
2018-03-30T06:04:15.662Z,71.95
2018-03-30T06:09:17.469Z,72.04
2018-03-30T06:14:20.054Z,71.66
2018-03-30T06:19:22.362Z,71.54
2018-03-30T06:24:24.605Z,71.42
2018-03-30T06:29:26.596Z,71.03
2018-03-30T06:34:28.781Z,70.05
2018-03-30T06:39:31.015Z,69.82
2018-03-30T06:44:34.931Z,69.24
2018-03-30T06:49:37.165Z,68.95
2018-03-30T06:54:38.585Z,68.16
2018-03-30T06:59:39.961Z,67.67
2018-03-30T07:04:42.495Z,67.58
2018-03-30T07:09:43.936Z,67.15
2018-03-30T07:14:46.298Z,67.46
2018-03-30T07:19:48.377Z,67.63
2018-03-30T07:24:51.286Z,67.39
2018-03-30T07:29:53.946Z,67.63
2018-03-30T07:34:56.346Z,67.54
2018-03-30T07:39:58.638Z,66.18
2018-03-30T07:45:01.614Z,66.00
2018-03-30T07:50:03.620Z,66.62
2018-03-30T07:55:05.061Z,66.62
2018-03-30T08:00:07.947Z,66.39
2018-03-30T08:05:10.088Z,66.31
2018-03-30T08:10:11.439Z,66.18
2018-03-30T08:15:12.840Z,66.72
2018-03-30T08:20:14.192Z,66.30
2018-03-30T08:25:16.287Z,65.90
2018-03-30T08:30:17.635Z,65.44
2018-03-30T08:35:19.005Z,64.64
2018-03-30T08:40:20.389Z,64.13
2018-03-30T08:45:21.724Z,63.65
2018-03-30T08:50:23.077Z,63.44
2018-03-30T08:55:24.488Z,62.67
2018-03-30T09:00:25.892Z,62.25
2018-03-30T09:05:27.604Z,62.01
2018-03-30T09:10:30.680Z,61.89
2018-03-30T09:15:32.909Z,62.35
2018-03-30T09:20:35.416Z,61.61
2018-03-30T09:25:37.315Z,61.13
2018-03-30T09:30:39.781Z,60.68
2018-03-30T09:35:42.192Z,60.48
2018-03-30T09:40:44.550Z,60.09
2018-03-30T09:45:45.992Z,59.35
2018-03-30T09:50:47.311Z,58.35
2018-03-30T09:55:49.433Z,58.48
2018-03-30T10:00:50.789Z,58.55
2018-03-30T10:05:52.135Z,59.09
2018-03-30T10:10:53.522Z,58.15
2018-03-30T10:15:54.949Z,57.41
2018-03-30T10:20:56.335Z,56.43
2018-03-30T10:25:57.696Z,56.95
2018-03-30T10:30:59.485Z,56.76
2018-03-30T10:36:02.433Z,56.15
2018-03-30T10:41:03.919Z,55.41
2018-03-30T10:46:05.239Z,54.50
2018-03-30T10:51:06.602Z,52.48
2018-03-30T10:56:07.964Z,52.56
2018-03-30T11:01:10.076Z,51.42
2018-03-30T11:06:11.474Z,50.67
2018-03-30T11:11:12.876Z,50.94
2018-03-30T11:16:14.242Z,49.76
2018-03-30T11:21:15.669Z,48.96
2018-03-30T11:26:17.056Z,48.99
2018-03-30T11:31:18.490Z,50.46
2018-03-30T11:36:19.832Z,50.14
2018-03-30T11:41:23.356Z,49.91
2018-03-30T11:46:26.497Z,50.85
2018-03-30T11:51:27.918Z,49.68
2018-03-30T11:56:29.280Z,49.68
2018-03-30T12:01:30.637Z,49.82
2018-03-30T12:06:31.960Z,48.92
2018-03-30T12:11:33.320Z,47.08
2018-03-30T12:16:35.384Z,46.16
2018-03-30T12:21:36.759Z,46.58
2018-03-30T12:26:38.136Z,46.01
2018-03-30T12:31:39.518Z,45.89
2018-03-30T12:36:40.875Z,45.45
2018-03-30T12:41:42.236Z,45.93
2018-03-30T12:46:43.599Z,45.81
2018-03-30T12:51:45.072Z,45.54
2018-03-30T12:56:47.159Z,44.28
2018-03-30T13:01:48.516Z,43.97
2018-03-30T13:06:49.835Z,44.08
2018-03-30T13:11:51.153Z,44.06
2018-03-30T13:16:53.225Z,44.08
2018-03-30T13:21:54.535Z,42.96
2018-03-30T13:26:56.699Z,43.22
2018-03-30T13:31:58.332Z,43.29
2018-03-30T13:37:00.601Z,43.67
2018-03-30T13:42:02.144Z,42.13
2018-03-30T13:47:04.342Z,42.80
2018-03-30T13:52:11.584Z,42.42
2018-03-30T13:57:39.314Z,43.00
2018-03-30T14:02:46.285Z,43.36
2018-03-30T14:13:25.881Z,42.91
2018-03-30T14:18:35.765Z,42.64
2018-03-30T14:23:43.531Z,44.16
2018-03-30T14:29:06.746Z,44.58
2018-03-30T14:34:21.893Z,44.23
2018-03-30T14:39:47.796Z,45.38
2018-03-30T14:44:51.141Z,44.83
2018-03-30T14:49:57.248Z,45.32
2018-03-30T14:55:01.395Z,46.25
2018-03-30T15:00:09.893Z,46.96
2018-03-30T15:05:37.138Z,47.28
2018-03-30T15:11:26.794Z,46.87
2018-03-30T15:16:55.768Z,47.38
2018-03-30T15:22:10.136Z,47.41
2018-03-30T15:32:48.798Z,47.60
2018-03-30T15:37:50.995Z,47.57
2018-03-30T15:42:59.133Z,47.73
2018-03-30T15:48:00.533Z,47.55
2018-03-30T15:53:01.912Z,47.29
2018-03-30T15:58:03.316Z,47.13
2018-03-30T16:03:04.697Z,47.15
2018-03-30T16:08:06.070Z,47.61
2018-03-30T16:13:07.454Z,47.81
2018-03-30T16:18:08.832Z,48.04
2018-03-30T16:23:09.920Z,47.55
2018-03-30T16:28:11.180Z,47.80
2018-03-30T16:33:12.984Z,47.69
2018-03-30T16:38:14.801Z,47.98
2018-03-30T16:43:15.961Z,48.41
2018-03-30T16:48:17.819Z,48.20
2018-03-30T16:53:18.905Z,48.78
2018-03-30T16:58:20.019Z,48.98
2018-03-30T17:03:21.204Z,48.04
2018-03-30T17:08:22.529Z,48.92
2018-03-30T17:13:23.675Z,49.65
2018-03-30T17:18:24.775Z,49.51
2018-03-30T17:23:26.617Z,50.07
2018-03-30T17:28:27.720Z,49.88
2018-03-30T17:33:28.868Z,50.32
2018-03-30T17:38:29.960Z,51.06
2018-03-30T17:43:31.124Z,51.54
2018-03-30T17:48:32.242Z,51.17
2018-03-30T17:53:33.364Z,51.52
2018-03-30T17:58:34.454Z,51.46
2018-03-30T18:03:35.532Z,51.62
2018-03-30T18:08:36.616Z,51.98
2018-03-30T18:13:37.712Z,51.81
2018-03-30T18:18:38.798Z,52.11
2018-03-30T18:23:41.025Z,52.04
2018-03-30T18:28:42.238Z,51.94
2018-03-30T18:33:44.011Z,51.99
2018-03-30T18:38:46.472Z,52.23
2018-03-30T18:43:47.965Z,51.74
2018-03-30T18:48:49.121Z,52.09
2018-03-30T18:53:50.446Z,52.41
2018-03-30T18:58:51.726Z,51.89
2018-03-30T19:03:52.852Z,51.80
2018-03-30T19:08:54.751Z,51.69
2018-03-30T19:13:57.334Z,51.56
2018-03-30T19:18:58.515Z,51.99
2018-03-30T19:23:59.615Z,51.97
2018-03-30T19:29:00.721Z,52.17
2018-03-30T19:34:01.842Z,52.46
2018-03-30T19:39:02.924Z,53.31
2018-03-30T19:44:04.026Z,54.26
2018-03-30T19:49:05.130Z,55.16
2018-03-30T19:54:06.275Z,55.78
2018-03-30T19:59:07.392Z,56.29
2018-03-30T20:04:08.500Z,56.82
2018-03-30T20:09:09.593Z,57.08
2018-03-30T20:14:10.661Z,56.98
2018-03-30T20:19:11.857Z,57.18
2018-03-30T20:24:12.955Z,57.47
2018-03-30T20:29:14.812Z,57.71
2018-03-30T20:34:15.891Z,57.56
2018-03-30T20:39:16.987Z,57.74
2018-03-30T20:44:18.096Z,57.83
2018-03-30T20:49:19.183Z,58.06
2018-03-30T20:54:21.239Z,58.44
2018-03-30T20:59:22.342Z,58.48
2018-03-30T21:04:23.448Z,58.38
2018-03-30T21:09:24.583Z,58.07
2018-03-30T21:14:25.658Z,58.11
2018-03-30T21:19:26.797Z,57.74
2018-03-30T21:24:27.949Z,57.66
2018-03-30T21:29:29.003Z,57.78
2018-03-30T21:34:30.087Z,57.14
2018-03-30T21:39:31.197Z,56.84
2018-03-30T21:44:32.277Z,56.09
2018-03-30T21:49:33.871Z,55.63
2018-03-30T21:54:35.010Z,56.33
2018-03-30T21:59:36.836Z,55.94
2018-03-30T22:04:38.876Z,56.75
2018-03-30T22:09:39.962Z,57.06
2018-03-30T22:14:41.094Z,57.58
2018-03-30T22:19:42.189Z,57.54
2018-03-30T22:24:44.106Z,57.30
2018-03-30T22:29:45.233Z,56.99
2018-03-30T22:34:46.340Z,56.41
2018-03-30T22:39:47.430Z,55.75
2018-03-30T22:44:48.511Z,55.68
2018-03-30T22:49:50.350Z,55.96
2018-03-30T22:54:51.460Z,56.03
2018-03-30T22:59:52.543Z,55.58
2018-03-30T23:04:53.629Z,55.47
2018-03-30T23:09:54.709Z,55.74
2018-03-30T23:14:55.842Z,55.96
2018-03-30T23:19:57.664Z,55.77
2018-03-30T23:24:58.756Z,56.23
2018-03-30T23:29:59.903Z,56.04
2018-03-30T23:35:01.000Z,56.26
2018-03-30T23:40:02.828Z,56.30
2018-03-30T23:45:03.929Z,56.45
2018-03-30T23:50:05.028Z,56.73
2018-03-30T23:55:06.122Z,56.62
